Аэропорт: Кривой Рог. Кривой Рог

ICAO: UKDR

METAR:
2019-09-21 16:00:00
UKDR 211600Z 30002MPS CAVOK 09/M00 Q1021 R36/09//70 NOSIG
METAR:
2019-09-21 11:02:00
TAF UKDR 211102Z 2112/2212 32006MPS 9999 BKN020 TEMPO 2112/2116 33007G12MPS 3100 -SHRA BKN020CB BECMG 2116/2118 25005MPS TEMPO 2123/2206 27009G14MPS 3100 -SHRA BKN015CB TEMPO 2206/2212 28011G16MPS